sensor_id;sensor_type;location;lat;lon;timestamp;temperature;humidity
47434;SHT31;33184;48.774;8.918;2023-06-10T00:01:31;17.34;62.21
47434;SHT31;33184;48.774;8.918;2023-06-10T00:06:54;17.24;63.01
47434;SHT31;33184;48.774;8.918;2023-06-10T00:12:15;17.28;63.55
47434;SHT31;33184;48.774;8.918;2023-06-10T00:17:37;17.28;63.04
47434;SHT31;33184;48.774;8.918;2023-06-10T00:22:59;17.17;63.72
47434;SHT31;33184;48.774;8.918;2023-06-10T00:28:21;16.94;63.43
47434;SHT31;33184;48.774;8.918;2023-06-10T00:33:43;16.76;64.05
47434;SHT31;33184;48.774;8.918;2023-06-10T00:39:03;16.73;64.50
47434;SHT31;33184;48.774;8.918;2023-06-10T00:44:24;16.62;65.26
47434;SHT31;33184;48.774;8.918;2023-06-10T00:49:45;16.48;65.04
47434;SHT31;33184;48.774;8.918;2023-06-10T00:55:06;16.52;65.63
47434;SHT31;33184;48.774;8.918;2023-06-10T01:00:28;16.35;66.23
47434;SHT31;33184;48.774;8.918;2023-06-10T01:05:55;16.12;66.51
47434;SHT31;33184;48.774;8.918;2023-06-10T01:11:27;16.14;66.76
47434;SHT31;33184;48.774;8.918;2023-06-10T01:16:49;16.14;66.73
47434;SHT31;33184;48.774;8.918;2023-06-10T01:22:10;16.22;66.46
47434;SHT31;33184;48.774;8.918;2023-06-10T01:27:33;16.18;66.68
47434;SHT31;33184;48.774;8.918;2023-06-10T01:33:01;16.05;66.80
47434;SHT31;33184;48.774;8.918;2023-06-10T01:38:24;16.01;66.96
47434;SHT31;33184;48.774;8.918;2023-06-10T01:43:46;16.00;67.30
47434;SHT31;33184;48.774;8.918;2023-06-10T01:49:07;15.77;67.78
47434;SHT31;33184;48.774;8.918;2023-06-10T01:54:28;15.60;68.95
47434;SHT31;33184;48.774;8.918;2023-06-10T01:59:49;15.50;69.07
47434;SHT31;33184;48.774;8.918;2023-06-10T02:05:09;15.26;70.10
47434;SHT31;33184;48.774;8.918;2023-06-10T02:10:30;15.07;70.87
47434;SHT31;33184;48.774;8.918;2023-06-10T02:15:51;15.10;70.57
47434;SHT31;33184;48.774;8.918;2023-06-10T02:21:14;15.26;70.21
47434;SHT31;33184;48.774;8.918;2023-06-10T02:26:34;15.35;70.13
47434;SHT31;33184;48.774;8.918;2023-06-10T02:31:56;15.27;69.88
47434;SHT31;33184;48.774;8.918;2023-06-10T02:37:17;15.24;70.24
47434;SHT31;33184;48.774;8.918;2023-06-10T02:42:38;15.19;70.14
47434;SHT31;33184;48.774;8.918;2023-06-10T02:47:59;15.10;69.89
47434;SHT31;33184;48.774;8.918;2023-06-10T02:53:20;14.98;70.23
47434;SHT31;33184;48.774;8.918;2023-06-10T02:58:47;14.89;70.34
47434;SHT31;33184;48.774;8.918;2023-06-10T03:04:10;14.92;70.41
47434;SHT31;33184;48.774;8.918;2023-06-10T03:09:34;14.76;70.84
47434;SHT31;33184;48.774;8.918;2023-06-10T03:14:57;14.61;71.51
47434;SHT31;33184;48.774;8.918;2023-06-10T03:20:18;14.40;72.06
47434;SHT31;33184;48.774;8.918;2023-06-10T03:25:40;14.42;71.81
47434;SHT31;33184;48.774;8.918;2023-06-10T03:31:00;14.52;71.73
47434;SHT31;33184;48.774;8.918;2023-06-10T03:36:23;14.35;71.89
47434;SHT31;33184;48.774;8.918;2023-06-10T03:41:44;14.22;71.45
47434;SHT31;33184;48.774;8.918;2023-06-10T03:47:06;14.22;70.85
47434;SHT31;33184;48.774;8.918;2023-06-10T03:52:28;14.24;71.79
47434;SHT31;33184;48.774;8.918;2023-06-10T03:57:49;14.07;72.03
47434;SHT31;33184;48.774;8.918;2023-06-10T04:03:10;14.07;72.55
47434;SHT31;33184;48.774;8.918;2023-06-10T04:08:37;14.16;72.90
47434;SHT31;33184;48.774;8.918;2023-06-10T04:13:58;14.31;72.41
47434;SHT31;33184;48.774;8.918;2023-06-10T04:19:20;14.40;72.86
47434;SHT31;33184;48.774;8.918;2023-06-10T04:24:41;14.48;72.45
47434;SHT31;33184;48.774;8.918;2023-06-10T04:30:04;14.54;72.28
47434;SHT31;33184;48.774;8.918;2023-06-10T04:35:28;14.67;71.78
47434;SHT31;33184;48.774;8.918;2023-06-10T04:40:50;14.71;71.81
47434;SHT31;33184;48.774;8.918;2023-06-10T04:46:12;14.65;72.32
47434;SHT31;33184;48.774;8.918;2023-06-10T04:51:34;14.74;72.59
47434;SHT31;33184;48.774;8.918;2023-06-10T04:56:55;14.91;72.21
47434;SHT31;33184;48.774;8.918;2023-06-10T05:02:16;15.07;72.14
47434;SHT31;33184;48.774;8.918;2023-06-10T05:07:36;14.99;73.11
47434;SHT31;33184;48.774;8.918;2023-06-10T05:12:57;15.05;73.72
47434;SHT31;33184;48.774;8.918;2023-06-10T05:18:18;15.27;73.62
47434;SHT31;33184;48.774;8.918;2023-06-10T05:23:39;15.46;72.59
47434;SHT31;33184;48.774;8.918;2023-06-10T05:29:00;15.71;71.95
47434;SHT31;33184;48.774;8.918;2023-06-10T05:34:20;15.80;71.79
47434;SHT31;33184;48.774;8.918;2023-06-10T05:39:41;15.92;72.55
47434;SHT31;33184;48.774;8.918;2023-06-10T05:45:02;16.10;72.25
47434;SHT31;33184;48.774;8.918;2023-06-10T05:50:24;16.43;71.13
47434;SHT31;33184;48.774;8.918;2023-06-10T05:55:45;16.70;69.86
47434;SHT31;33184;48.774;8.918;2023-06-10T06:01:06;16.97;69.38
47434;SHT31;33184;48.774;8.918;2023-06-10T06:06:26;17.24;69.14
47434;SHT31;33184;48.774;8.918;2023-06-10T06:11:47;17.47;68.55
47434;SHT31;33184;48.774;8.918;2023-06-10T06:17:08;17.67;67.89
47434;SHT31;33184;48.774;8.918;2023-06-10T06:22:28;17.77;67.78
47434;SHT31;33184;48.774;8.918;2023-06-10T06:27:49;17.98;68.08
47434;SHT31;33184;48.774;8.918;2023-06-10T06:33:09;18.22;67.65
47434;SHT31;33184;48.774;8.918;2023-06-10T06:38:30;18.54;67.55
47434;SHT31;33184;48.774;8.918;2023-06-10T06:43:51;18.88;67.02
47434;SHT31;33184;48.774;8.918;2023-06-10T06:49:18;19.04;66.27
47434;SHT31;33184;48.774;8.918;2023-06-10T06:54:39;19.32;66.02
47434;SHT31;33184;48.774;8.918;2023-06-10T06:59:59;19.53;65.65
47434;SHT31;33184;48.774;8.918;2023-06-10T07:05:20;19.71;64.78
47434;SHT31;33184;48.774;8.918;2023-06-10T07:10:40;19.93;63.63
47434;SHT31;33184;48.774;8.918;2023-06-10T07:16:01;20.17;62.71
47434;SHT31;33184;48.774;8.918;2023-06-10T07:21:22;20.31;62.29
47434;SHT31;33184;48.774;8.918;2023-06-10T07:26:43;20.48;62.32
47434;SHT31;33184;48.774;8.918;2023-06-10T07:32:04;20.58;61.74
47434;SHT31;33184;48.774;8.918;2023-06-10T07:37:25;20.67;61.48
47434;SHT31;33184;48.774;8.918;2023-06-10T07:42:45;20.88;61.21
47434;SHT31;33184;48.774;8.918;2023-06-10T07:48:06;20.98;61.02
47434;SHT31;33184;48.774;8.918;2023-06-10T07:53:28;21.13;60.47
47434;SHT31;33184;48.774;8.918;2023-06-10T07:58:49;21.42;57.59
47434;SHT31;33184;48.774;8.918;2023-06-10T08:04:10;21.71;57.80
47434;SHT31;33184;48.774;8.918;2023-06-10T08:09:30;21.80;56.15
47434;SHT31;33184;48.774;8.918;2023-06-10T08:14:51;21.87;56.68
47434;SHT31;33184;48.774;8.918;2023-06-10T08:20:11;22.05;55.85
47434;SHT31;33184;48.774;8.918;2023-06-10T08:25:32;22.00;55.95
47434;SHT31;33184;48.774;8.918;2023-06-10T08:30:52;21.98;55.67
47434;SHT31;33184;48.774;8.918;2023-06-10T08:36:13;22.04;55.69
47434;SHT31;33184;48.774;8.918;2023-06-10T08:41:35;22.46;55.41
47434;SHT31;33184;48.774;8.918;2023-06-10T08:46:59;22.51;55.68
47434;SHT31;33184;48.774;8.918;2023-06-10T08:52:21;22.77;54.39
47434;SHT31;33184;48.774;8.918;2023-06-10T08:57:42;22.79;54.22
47434;SHT31;33184;48.774;8.918;2023-06-10T09:03:05;22.79;54.10
47434;SHT31;33184;48.774;8.918;2023-06-10T09:08:26;22.80;52.57
47434;SHT31;33184;48.774;8.918;2023-06-10T09:13:46;23.02;52.24
47434;SHT31;33184;48.774;8.918;2023-06-10T09:19:07;23.02;52.52
47434;SHT31;33184;48.774;8.918;2023-06-10T09:24:32;23.17;51.95
47434;SHT31;33184;48.774;8.918;2023-06-10T09:29:54;23.22;52.07
47434;SHT31;33184;48.774;8.918;2023-06-10T09:35:15;23.33;52.30
47434;SHT31;33184;48.774;8.918;2023-06-10T09:40:51;23.36;52.75
47434;SHT31;33184;48.774;8.918;2023-06-10T09:46:19;23.12;52.98
47434;SHT31;33184;48.774;8.918;2023-06-10T09:51:50;23.37;52.85
47434;SHT31;33184;48.774;8.918;2023-06-10T09:57:11;23.44;52.57
47434;SHT31;33184;48.774;8.918;2023-06-10T10:02:32;23.97;52.05
47434;SHT31;33184;48.774;8.918;2023-06-10T10:07:53;23.89;50.50
47434;SHT31;33184;48.774;8.918;2023-06-10T10:13:13;23.71;51.12
47434;SHT31;33184;48.774;8.918;2023-06-10T10:18:35;23.94;51.17
47434;SHT31;33184;48.774;8.918;2023-06-10T10:24:05;24.08;50.78
47434;SHT31;33184;48.774;8.918;2023-06-10T10:29:34;25.06;49.22
47434;SHT31;33184;48.774;8.918;2023-06-10T10:35:05;25.17;47.05
47434;SHT31;33184;48.774;8.918;2023-06-10T10:40:28;25.57;47.27
47434;SHT31;33184;48.774;8.918;2023-06-10T10:46:02;25.39;46.41
47434;SHT31;33184;48.774;8.918;2023-06-10T10:51:33;25.82;46.35
47434;SHT31;33184;48.774;8.918;2023-06-10T10:57:24;25.78;45.31
47434;SHT31;33184;48.774;8.918;2023-06-10T11:02:45;25.74;45.17
47434;SHT31;33184;48.774;8.918;2023-06-10T11:08:08;25.17;46.90
47434;SHT31;33184;48.774;8.918;2023-06-10T11:13:28;25.10;46.25
47434;SHT31;33184;48.774;8.918;2023-06-10T11:18:53;25.51;46.72
47434;SHT31;33184;48.774;8.918;2023-06-10T11:24:14;26.49;45.48
47434;SHT31;33184;48.774;8.918;2023-06-10T11:29:34;26.87;43.04
47434;SHT31;33184;48.774;8.918;2023-06-10T11:34:55;26.56;43.34
47434;SHT31;33184;48.774;8.918;2023-06-10T11:40:16;27.77;42.18
47434;SHT31;33184;48.774;8.918;2023-06-10T11:45:37;28.45;40.00
47434;SHT31;33184;48.774;8.918;2023-06-10T11:50:57;27.94;40.04
47434;SHT31;33184;48.774;8.918;2023-06-10T11:56:25;27.26;41.10
47434;SHT31;33184;48.774;8.918;2023-06-10T12:01:46;27.62;41.97
47434;SHT31;33184;48.774;8.918;2023-06-10T12:07:07;28.60;39.46
47434;SHT31;33184;48.774;8.918;2023-06-10T12:12:27;30.35;37.16
47434;SHT31;33184;48.774;8.918;2023-06-10T12:17:48;28.72;37.50
47434;SHT31;33184;48.774;8.918;2023-06-10T12:23:09;28.71;37.43
47434;SHT31;33184;48.774;8.918;2023-06-10T12:28:30;29.32;36.91
47434;SHT31;33184;48.774;8.918;2023-06-10T12:34:07;29.94;35.68
47434;SHT31;33184;48.774;8.918;2023-06-10T12:39:28;27.87;38.55
47434;SHT31;33184;48.774;8.918;2023-06-10T12:44:53;27.49;39.25
47434;SHT31;33184;48.774;8.918;2023-06-10T12:50:13;29.29;36.58
47434;SHT31;33184;48.774;8.918;2023-06-10T12:55:34;30.61;34.81
47434;SHT31;33184;48.774;8.918;2023-06-10T13:00:55;31.08;33.96
47434;SHT31;33184;48.774;8.918;2023-06-10T13:06:17;30.25;33.78
47434;SHT31;33184;48.774;8.918;2023-06-10T13:11:39;31.40;32.39
47434;SHT31;33184;48.774;8.918;2023-06-10T13:17:00;30.99;33.04
47434;SHT31;33184;48.774;8.918;2023-06-10T13:22:20;29.23;36.03
47434;SHT31;33184;48.774;8.918;2023-06-10T13:27:41;29.38;35.87
47434;SHT31;33184;48.774;8.918;2023-06-10T13:33:02;28.84;37.56
47434;SHT31;33184;48.774;8.918;2023-06-10T13:38:23;28.00;36.90
47434;SHT31;33184;48.774;8.918;2023-06-10T13:43:43;27.46;38.59
47434;SHT31;33184;48.774;8.918;2023-06-10T13:49:04;27.51;39.09
47434;SHT31;33184;48.774;8.918;2023-06-10T13:54:24;27.48;38.71
47434;SHT31;33184;48.774;8.918;2023-06-10T13:59:45;29.64;37.74
47434;SHT31;33184;48.774;8.918;2023-06-10T14:05:06;31.59;32.05
47434;SHT31;33184;48.774;8.918;2023-06-10T14:10:28;30.61;32.43
47434;SHT31;33184;48.774;8.918;2023-06-10T14:15:49;29.06;34.70
47434;SHT31;33184;48.774;8.918;2023-06-10T14:21:10;30.72;32.61
47434;SHT31;33184;48.774;8.918;2023-06-10T14:26:30;31.25;32.05
47434;SHT31;33184;48.774;8.918;2023-06-10T14:31:52;31.50;30.67
47434;SHT31;33184;48.774;8.918;2023-06-10T14:37:13;30.88;31.77
47434;SHT31;33184;48.774;8.918;2023-06-10T14:42:34;30.25;33.61
47434;SHT31;33184;48.774;8.918;2023-06-10T14:47:54;30.62;33.09
47434;SHT31;33184;48.774;8.918;2023-06-10T14:53:15;31.25;32.85
47434;SHT31;33184;48.774;8.918;2023-06-10T14:58:35;31.64;30.40
47434;SHT31;33184;48.774;8.918;2023-06-10T15:03:56;30.98;31.71
47434;SHT31;33184;48.774;8.918;2023-06-10T15:09:16;30.80;31.48
47434;SHT31;33184;48.774;8.918;2023-06-10T15:14:37;31.15;31.23
47434;SHT31;33184;48.774;8.918;2023-06-10T15:19:57;30.76;32.34
47434;SHT31;33184;48.774;8.918;2023-06-10T15:25:18;30.39;33.62
47434;SHT31;33184;48.774;8.918;2023-06-10T15:30:38;29.98;33.58
47434;SHT31;33184;48.774;8.918;2023-06-10T15:35:59;30.08;32.99
47434;SHT31;33184;48.774;8.918;2023-06-10T15:41:19;29.66;33.79
47434;SHT31;33184;48.774;8.918;2023-06-10T15:46:40;28.49;35.38
47434;SHT31;33184;48.774;8.918;2023-06-10T15:52:01;29.57;34.58
47434;SHT31;33184;48.774;8.918;2023-06-10T15:57:22;30.49;33.44
47434;SHT31;33184;48.774;8.918;2023-06-10T16:02:42;30.44;33.29
47434;SHT31;33184;48.774;8.918;2023-06-10T16:08:03;30.23;33.19
47434;SHT31;33184;48.774;8.918;2023-06-10T16:13:23;29.62;34.32
47434;SHT31;33184;48.774;8.918;2023-06-10T16:18:44;29.01;34.87
47434;SHT31;33184;48.774;8.918;2023-06-10T16:24:08;28.99;35.43
47434;SHT31;33184;48.774;8.918;2023-06-10T16:29:29;28.99;35.30
47434;SHT31;33184;48.774;8.918;2023-06-10T16:34:50;28.81;35.77
47434;SHT31;33184;48.774;8.918;2023-06-10T16:40:11;28.78;35.45
47434;SHT31;33184;48.774;8.918;2023-06-10T16:45:32;29.03;34.93
47434;SHT31;33184;48.774;8.918;2023-06-10T16:50:52;28.68;35.18
47434;SHT31;33184;48.774;8.918;2023-06-10T16:56:13;28.45;34.91
47434;SHT31;33184;48.774;8.918;2023-06-10T17:01:33;28.13;36.03
47434;SHT31;33184;48.774;8.918;2023-06-10T17:06:54;27.89;36.45
47434;SHT31;33184;48.774;8.918;2023-06-10T17:12:14;27.70;36.95
47434;SHT31;33184;48.774;8.918;2023-06-10T17:17:35;27.48;37.95
47434;SHT31;33184;48.774;8.918;2023-06-10T17:22:56;27.51;37.99
47434;SHT31;33184;48.774;8.918;2023-06-10T17:28:17;27.32;38.44
47434;SHT31;33184;48.774;8.918;2023-06-10T17:33:37;27.35;38.39
47434;SHT31;33184;48.774;8.918;2023-06-10T17:38:58;27.10;39.18
47434;SHT31;33184;48.774;8.918;2023-06-10T17:44:21;26.95;39.91
47434;SHT31;33184;48.774;8.918;2023-06-10T17:49:44;26.86;40.00
47434;SHT31;33184;48.774;8.918;2023-06-10T17:55:05;26.61;40.41
47434;SHT31;33184;48.774;8.918;2023-06-10T18:00:26;26.49;40.77
47434;SHT31;33184;48.774;8.918;2023-06-10T18:05:46;26.33;40.94
47434;SHT31;33184;48.774;8.918;2023-06-10T18:11:07;26.23;41.45
47434;SHT31;33184;48.774;8.918;2023-06-10T18:16:27;26.17;41.36
47434;SHT31;33184;48.774;8.918;2023-06-10T18:21:49;26.12;41.43
47434;SHT31;33184;48.774;8.918;2023-06-10T18:27:09;25.95;42.33
47434;SHT31;33184;48.774;8.918;2023-06-10T18:32:30;25.99;42.19
47434;SHT31;33184;48.774;8.918;2023-06-10T18:37:50;26.03;42.15
47434;SHT31;33184;48.774;8.918;2023-06-10T18:43:11;25.90;42.49
47434;SHT31;33184;48.774;8.918;2023-06-10T18:48:32;25.89;42.86
47434;SHT31;33184;48.774;8.918;2023-06-10T18:53:53;25.92;42.70
47434;SHT31;33184;48.774;8.918;2023-06-10T18:59:14;25.74;42.70
47434;SHT31;33184;48.774;8.918;2023-06-10T19:04:34;25.45;43.22
47434;SHT31;33184;48.774;8.918;2023-06-10T19:09:55;25.34;43.47
47434;SHT31;33184;48.774;8.918;2023-06-10T19:15:15;25.30;43.66
47434;SHT31;33184;48.774;8.918;2023-06-10T19:20:36;25.08;43.93
47434;SHT31;33184;48.774;8.918;2023-06-10T19:25:58;24.99;44.25
47434;SHT31;33184;48.774;8.918;2023-06-10T19:31:20;24.81;44.39
47434;SHT31;33184;48.774;8.918;2023-06-10T19:36:41;24.63;44.84
47434;SHT31;33184;48.774;8.918;2023-06-10T19:42:01;24.53;45.26
47434;SHT31;33184;48.774;8.918;2023-06-10T19:47:22;24.35;45.60
47434;SHT31;33184;48.774;8.918;2023-06-10T19:52:42;24.23;46.13
47434;SHT31;33184;48.774;8.918;2023-06-10T19:58:03;24.05;46.62
47434;SHT31;33184;48.774;8.918;2023-06-10T20:03:24;23.94;46.93
47434;SHT31;33184;48.774;8.918;2023-06-10T20:08:44;23.77;47.68
47434;SHT31;33184;48.774;8.918;2023-06-10T20:14:05;23.65;47.94
47434;SHT31;33184;48.774;8.918;2023-06-10T20:19:25;23.64;48.31
47434;SHT31;33184;48.774;8.918;2023-06-10T20:24:46;23.55;48.37
47434;SHT31;33184;48.774;8.918;2023-06-10T20:30:07;23.53;48.56
47434;SHT31;33184;48.774;8.918;2023-06-10T20:35:28;23.48;48.76
47434;SHT31;33184;48.774;8.918;2023-06-10T20:40:48;23.40;49.06
47434;SHT31;33184;48.774;8.918;2023-06-10T20:46:09;23.30;49.66
47434;SHT31;33184;48.774;8.918;2023-06-10T20:51:30;23.12;50.34
47434;SHT31;33184;48.774;8.918;2023-06-10T20:56:50;22.92;50.59
47434;SHT31;33184;48.774;8.918;2023-06-10T21:02:11;22.84;50.93
47434;SHT31;33184;48.774;8.918;2023-06-10T21:07:32;22.80;51.06
47434;SHT31;33184;48.774;8.918;2023-06-10T21:12:53;22.65;51.46
47434;SHT31;33184;48.774;8.918;2023-06-10T21:18:13;22.53;52.03
47434;SHT31;33184;48.774;8.918;2023-06-10T21:23:34;22.39;52.66
47434;SHT31;33184;48.774;8.918;2023-06-10T21:28:54;22.24;53.03
47434;SHT31;33184;48.774;8.918;2023-06-10T21:34:15;22.11;53.50
47434;SHT31;33184;48.774;8.918;2023-06-10T21:39:35;22.02;54.26
47434;SHT31;33184;48.774;8.918;2023-06-10T21:44:56;21.88;55.10
47434;SHT31;33184;48.774;8.918;2023-06-10T21:50:16;21.82;55.34
47434;SHT31;33184;48.774;8.918;2023-06-10T21:55:37;21.70;56.10
47434;SHT31;33184;48.774;8.918;2023-06-10T22:00:57;21.67;56.07
47434;SHT31;33184;48.774;8.918;2023-06-10T22:06:18;21.61;56.32
47434;SHT31;33184;48.774;8.918;2023-06-10T22:11:39;21.58;56.77
47434;SHT31;33184;48.774;8.918;2023-06-10T22:17:00;21.49;57.24
47434;SHT31;33184;48.774;8.918;2023-06-10T22:22:20;21.40;57.64
47434;SHT31;33184;48.774;8.918;2023-06-10T22:27:41;21.35;58.04
47434;SHT31;33184;48.774;8.918;2023-06-10T22:33:01;21.26;58.35
47434;SHT31;33184;48.774;8.918;2023-06-10T22:38:22;21.17;58.99
47434;SHT31;33184;48.774;8.918;2023-06-10T22:43:43;21.07;59.68
47434;SHT31;33184;48.774;8.918;2023-06-10T22:49:03;20.96;60.13
47434;SHT31;33184;48.774;8.918;2023-06-10T22:54:24;20.89;60.50
47434;SHT31;33184;48.774;8.918;2023-06-10T22:59:46;20.82;60.79
47434;SHT31;33184;48.774;8.918;2023-06-10T23:05:07;20.76;61.39
47434;SHT31;33184;48.774;8.918;2023-06-10T23:10:29;20.75;61.41
47434;SHT31;33184;48.774;8.918;2023-06-10T23:15:50;20.74;61.44
47434;SHT31;33184;48.774;8.918;2023-06-10T23:21:13;20.62;61.87
47434;SHT31;33184;48.774;8.918;2023-06-10T23:26:34;20.58;61.94
47434;SHT31;33184;48.774;8.918;2023-06-10T23:31:55;20.51;61.72
47434;SHT31;33184;48.774;8.918;2023-06-10T23:37:16;20.48;61.90
47434;SHT31;33184;48.774;8.918;2023-06-10T23:42:39;20.41;62.46
47434;SHT31;33184;48.774;8.918;2023-06-10T23:47:59;20.25;62.88
47434;SHT31;33184;48.774;8.918;2023-06-10T23:53:20;20.20;62.98
47434;SHT31;33184;48.774;8.918;2023-06-10T23:58:40;20.04;63.14
